Bailen, Spain
Current Conditions -  °F | °C
As of 10:00 AM on Thursday 18 Dec 2014 (Local Time) from LEBA Reporting Station
Moderate Fog Moderate Fog  
Wind Chill: 37°   Ceiling: 200
Heat Index: 41°   Visibility: 0.15mi
Dew Point: 41°   Wind: 6mph
Humidity: 100%   Direction: 50°NE
Pressure: 30.39"   Gusts: NA
Location:  38.1°N, 3.77°W
Report Text: LEBA 180900Z 05005KT 0250 R21/0650N FG VV002 05/05 Q1029
Loading
Personal Weather Stations






























Interactive Weather Map New forecast layout! Learn more

10-Day Weather Forecast

Advertisements
Track Severe Weather on mobile